Кольцово

Карта отелей и гостиниц, располагающихся рядом с аэропортом Кольцово :

Кольцово
Екатеринбург
Свердловская область 56° 44' 35.0412" N, 60° 48' 13.0788" E
Код аэродрома ИКАО
USSS
Код аэродрома RU
УССС
Координаты
N56.74307° E060.80363°
Превышение над уровнем моря
234
Основная полоса
08R/26L
Курс магнитный
079,7/259,7
Длина основной ВПП
3026
Ширина основной ВПП
53
Покрытие основной ВПП
Твёрдое
Освещение ВПП
Постоянное
Тип: 
Аэродром
Класс аэродрома: 
Международный
Принадлежность: 
ГА
Статус: 
Действующий
Сайт: 
www.koltsovo.ru
E-mail аэродрома: 
airport@koltsovo.ru
Страна: 
Россия
Регион: 
Свердловская область
Город: 
Екатеринбург
Дополнительная информация: 
Оператор: ПАО «Аэропорт Кольцово». Нкр.=(600)м. Совместного базирования. Стоянка ВС МО на С-В от КТА. Военный индекс: XSSS / ЬССС. Военный позывной: "Аленький". Базируется государственная (военная) авиация МОРФ (с 2013 г - 390-й отдельный транспортный смешанный авиационный полк).
Погода: 

Авиационная погода в Екатеринбурге

Регион: 
Погода METAR: 
USSS 241700Z 22002MPS 190V250 9999 BKN025 05/04 Q1007 R26L/290050 R26R/290032 NOSIG RMK QFE735/0980
Время наблюдения
2021-10-24T17:00:00Z
Температура C
5.0
Точка росы
4.0
Направление ветра
220
Скорость ветра (узлы)
4
Метео видимость
6.21
Явления погоды
Условия полета
MVFR
Аэропорт подробнее: 

Найти трансфер

С помощью этой формы Вы можете найти трансфер из аэропорта Кольцово в город, аэропорт или вокзал:

Карта места

Javascript is required to view this map.

Погода в аэропортах:

Авиационная погода в Синопе

Регион: 
Погода METAR: 
LTCM 241650Z 32008KT 210V360 7000 -SHRA SCT015 BKN025 BKN070 13/11 Q1026
Время наблюдения
2021-10-24T16:50:00Z
Температура C
13.0
Точка росы
11.0
Направление ветра
320
Скорость ветра (узлы)
8
Метео видимость
4.35
Явления погоды
-SHRA
Условия полета
MVFR

Авиационная погода в Воронеже

Регион: 
Погода METAR: 
UUOO 241700Z 33008MPS 9000 -SHRA BKN010 OVC///CB 03/01 Q1020 R30/290155 NOSIG RMK QFE752
Время наблюдения
2021-10-24T17:00:00Z
Температура C
3.0
Точка росы
1.0
Направление ветра
330
Скорость ветра (узлы)
16
Метео видимость
5.59
Явления погоды
-SHRA
Условия полета
MVFR
Аэропорт подробнее: 

Авиационная погода в Москва - Внуково

Погода METAR: 
UUWW 241700Z 33006MPS 9000 -SHSN BKN031CB 01/M04 Q1022 RMK WS R24 R24/290050 TEMPO 1500 SHSN BKN012CB
Время наблюдения
2021-10-24T17:00:00Z
Температура C
1.0
Точка росы
-4.0
Направление ветра
330
Скорость ветра (узлы)
12
Метео видимость
5.59
Явления погоды
-SHSN
Условия полета
VFR
Аэропорт подробнее: 

Авиационная погода в Краснодаре

Регион: 
Погода METAR: 
URKK 241700Z 36005MPS 9999 -SHRA BKN031CB 06/04 Q1024 R05R/290060 TEMPO 2000 TSRA SCT005 BKN020CB RMK QFE765
Время наблюдения
2021-10-24T17:00:00Z
Температура C
6.0
Точка росы
4.0
Направление ветра
360
Скорость ветра (узлы)
10
Метео видимость
6.21
Явления погоды
-SHRA
Условия полета
VFR
Аэропорт подробнее: